Fremont, NE

5:54 AM CST on February 25, 2017 (GMT -0600)
Barnard Park | | Change Station

Elev 1207 ft 41.43 °N, 96.49 °W | Updated 9 seconds ago

Clear
Clear
15.3 °F
Feels Like 15 °F
N
0.0
Wind Variable Wind from ENE

Today
High -- | Low -- °F
--% Chance of Precip.
Yesterday
High -- | Low -- °F
Precip. -- in
Pressure 30.11 in
Visibility 10.0 miles
Clouds Clear
Windchill 15 °F
Dew Point 13 °F
Humidity 93%
Rainfall 0.00 in
Snow Depth Not available.
7:06 AM 6:12 PM
Waning Crescent, 2% visible
METAR KFET 251135Z AUTO 30005KT 10SM CLR M10/M11 A3011 RMK AO2 T10961115
Pressure 30.11 in
Visibility 10.0 miles
Clouds Clear
Windchill 15 °F
Dew Point 13 °F
Humidity 93%
Rainfall 0.00 in
Snow Depth Not available.
7:06 AM 6:12 PM
Waning Crescent, 2% visible
METAR KFET 251135Z AUTO 30005KT 10SM CLR M10/M11 A3011 RMK AO2 T10961115

Get Your Daily Forecast Email!

Thanks for signing up!

Be on the lookout for a verification email in your inbox.

You'll start receiving the daily forecast at 8 AM.

×

10-Day Weather Forecast

Almanac

Astronomy

Feb. 25, 2017 Rise Set
Actual Time
Civil Twilight
Nautical Twilight
Astronomical Twilight
Moon
Length of Visible Light
Length of Day
Tomorrow will be .
, % of the Moon is Illuminated

Today's Extremes

State Highs State Lows

Community

WunderPhotos

Upload Photos

1,962,540 photos uploaded!

WunderBlog® & News

Nearby

Air Quality

  Air Quality AQ Index Pollutant
Not available.

Snow Depth

Station Depth Elevation

Earthquake Activity

City Distance Mag. Time & Date
Minimum magnitude displayed is 2.5.

Coastal Water Temperatures

Place Temperature

Stations

Nearby Weather Stations

Station Location Temp. Windchill Dew Point Humidity Wind Precip. Elev Updated Type
                   

Watches & Warnings

There are currently no watches in effect.